Flight Track Log - Related Links

Times and Time Zones

All times are in EDT time to prevent confusion due to time zone crossing. See the UAL684 flight status page for this flight to view local times or setup timezone preferences in your user account.

Time Position Orientation Groundspeed Altitude Reporting Facility
EDT Latitude Longitude Course Direction KTS MPH feet Rate Location/Type
Tue 10:11:04 AM 33.9072 -118.4881 256° West 211 243 2,500  Level Los Angeles Center
Tue 10:12:06 AM 33.8481 -118.5203 204° Southwest 250 288 4,600 2,129 Climbing Los Angeles Center
Tue 10:13:08 AM 33.7778 -118.5186 179° South 272 313 6,900 2,613 Climbing Los Angeles Center
Tue 10:14:00 AM 34.3338 -117.4938 62° Northeast  Level Estimated
Tue 10:14:10 AM 33.6906 -118.4947 167° South 292 336 10,000  Level Los Angeles Center
Tue 10:15:00 AM 34.3866 -117.3561 45° Northeast  Level FlightAware Approximate
Tue 10:15:12 AM 33.6619 -118.3922 109° East 327 376 11,100  Level Los Angeles Center
Tue 10:16:00 AM 33.9307 -118.5463 256° West  Level FlightAware Approximate
Tue 10:16:14 AM 33.6789 -118.2808 80° East 372 428 13,100  Level Los Angeles Center
Tue 10:17:16 AM 33.7292 -118.1750 60° Northeast 374 430 14,900 1,306 Climbing Los Angeles Center
Tue 10:18:18 AM 33.8003 -118.0397 58° Northeast 406 467 15,800 1,161 Climbing Los Angeles Center
Tue 10:19:20 AM 33.8950 -117.9547 37° Northeast 425 489 17,300 1,597 Climbing Los Angeles Center
Tue 10:20:22 AM 33.9914 -117.8667 37° Northeast 433 498 19,100 1,500 Climbing Los Angeles Center
Tue 10:21:24 AM 34.0894 -117.7772 37° Northeast 438 504 20,400 1,210 Climbing Los Angeles Center
Tue 10:22:26 AM 34.1733 -117.6639 48° Northeast 450 518 21,600 1,403 Climbing Los Angeles Center
Tue 10:23:28 AM 34.2764 -117.5244 48° Northeast 461 531 23,300 1,694 Climbing Los Angeles Center
Tue 10:24:30 AM 34.3633 -117.4044 49° Northeast 473 544 25,100 1,403 Climbing Los Angeles Center
Tue 10:25:32 AM 34.4494 -117.2867 48° Northeast 455 524 26,200 1,016 Climbing Los Angeles Center
Tue 10:26:34 AM 34.5356 -117.1686 48° Northeast 464 534 27,200 726 Climbing Los Angeles Center
Tue 10:27:36 AM 34.6222 -117.0494 49° Northeast 472 543 27,700 532 Climbing Los Angeles Center
Tue 10:28:38 AM 34.7122 -116.9236 49° Northeast 492 566 28,300 629 Climbing Los Angeles Center
Tue 10:29:40 AM 34.8028 -116.7975 49° Northeast 496 571 29,000 823 Climbing Los Angeles Center
Tue 10:30:42 AM 34.9125 -116.6447 49° Northeast 498 573 30,000 1,056 Climbing Los Angeles Center
Tue 10:31:45 AM 35.0067 -116.5194 47° Northeast 501 577 31,200 960 Climbing Los Angeles Center
Tue 10:32:47 AM 35.1025 -116.4011 45° Northeast 500 575 32,000 726 Climbing Los Angeles Center
Tue 10:33:49 AM 35.1975 -116.2811 46° Northeast 498 573 32,700 484 Climbing Los Angeles Center
Tue 10:34:51 AM 35.2928 -116.1619 46° Northeast 493 567 33,000 145 Climbing Los Angeles Center
Tue 10:35:53 AM 35.4069 -116.0161 46° Northeast 494 568 33,000 -48 Level Los Angeles Center
Tue 10:36:55 AM 35.5033 -115.8983 45° Northeast 492 566 32,900 -48 Descending Los Angeles Center
Tue 10:37:57 AM 35.6000 -115.7725 47° Northeast 494 568 32,900  Level Los Angeles Center
Tue 10:38:59 AM 35.6967 -115.6517 45° Northeast 496 571 32,900 48 Level Los Angeles Center
Tue 10:40:01 AM 35.7933 -115.5278 46° Northeast 501 577 33,000 48 Climbing Los Angeles Center
Tue 10:41:03 AM 35.8889 -115.4056 46° Northeast 501 577 33,000  Level Los Angeles Center
Tue 10:42:05 AM 36.0067 -115.2544 46° Northeast 509 586 33,000  Level Los Angeles Center
Tue 10:43:07 AM 36.1033 -115.1272 47° Northeast 512 589 33,000  Level Los Angeles Center
Tue 10:44:09 AM 36.2036 -115.0019 45° Northeast 514 592 33,000  Level Los Angeles Center
Tue 10:45:11 AM 36.3033 -114.8750 46° Northeast 516 594 33,000  Level Los Angeles Center
Tue 10:46:14 AM 36.4231 -114.7206 46° Northeast 516 594 33,000 144 Level Los Angeles Center
Tue 10:47:16 AM 36.5225 -114.5900 47° Northeast 521 600 33,300 484 Climbing Los Angeles Center
Tue 10:48:18 AM 36.6236 -114.4581 46° Northeast 522 601 34,000 823 Climbing Los Angeles Center
Tue 10:49:20 AM 36.7211 -114.3267 47° Northeast 521 600 35,000 484 Climbing Los Angeles Center
Tue 10:50:22 AM 36.8069 -114.1836 53° Northeast 520 598 35,000  Level Los Angeles Center
Tue 10:51:24 AM 36.8786 -114.0269 60° Northeast 519 597 35,000 -48 Level Los Angeles Center
Tue 10:52:26 AM 36.9631 -113.8508 59° Northeast 519 597 34,900 -48 Descending Los Angeles Center
Tue 10:53:28 AM 37.0372 -113.6983 59° Northeast 518 596 34,900  Level Los Angeles Center
Tue 10:54:30 AM 37.1111 -113.5447 59° Northeast 518 596 34,900 48 Level Los Angeles Center
Tue 10:55:32 AM 37.1831 -113.3911 60° Northeast 517 595 35,000 48 Climbing Los Angeles Center
Tue 10:56:34 AM 37.2711 -113.2053 59° Northeast 517 595 35,000  Level Los Angeles Center
Tue 10:57:36 AM 37.3439 -113.0497 59° Northeast 518 596 35,000  Level Los Angeles Center
Tue 10:58:39 AM 37.4156 -112.8942 60° Northeast 518 596 35,000  Level Los Angeles Center
Tue 10:59:41 AM 37.4864 -112.7419 60° Northeast 518 596 35,000 -53 Level Los Angeles Center
Tue 11:00:33 AM 37.5578 -112.5900 59° Northeast 518 596 34,900 -53 Descending Salt Lake Center
Tue 11:01:35 AM 37.6300 -112.4369 59° Northeast 517 595 34,900 48 Level Salt Lake Center
Tue 11:02:37 AM 37.7022 -112.2808 60° Northeast 517 595 35,000 48 Climbing Salt Lake Center
Tue 11:03:39 AM 37.7747 -112.1217 60° Northeast 519 597 35,000  Level Salt Lake Center
Tue 11:04:41 AM 37.8639 -111.9339 59° Northeast 520 598 35,000  Level Salt Lake Center
Tue 11:05:43 AM 37.9356 -111.7744 60° Northeast 520 598 35,000  Level Salt Lake Center
Tue 11:06:45 AM 38.0053 -111.6150 61° Northeast 520 598 35,000  Level Salt Lake Center
Tue 11:07:47 AM 38.0097 -111.4397 88° East 497 572 35,000  Level Salt Lake Center
Tue 11:08:50 AM 37.9947 -111.2692 96° East 488 562 35,000  Level Salt Lake Center
Tue 11:09:52 AM 37.9797 -111.0964 96° East 489 563 35,000  Level Salt Lake Center
Tue 11:10:54 AM 37.9914 -110.9111 85° East 503 579 35,000  Level Salt Lake Center
Tue 11:11:43 AM 38.0553 -110.7942 55° Northeast 511 588 35,000 -54 Level Denver Center
Tue 11:12:45 AM 38.1836 -110.7200 24° Northeast 511 588 34,900 -48 Descending Denver Center
Tue 11:13:47 AM 38.3514 -110.7289 358° North 502 578 34,900  Level Denver Center
Tue 11:14:49 AM 38.4908 -110.7169 North 506 582 34,900 48 Level Denver Center
Tue 11:15:51 AM 38.6247 -110.6428 23° Northeast 525 604 35,000 48 Climbing Denver Center
Tue 11:16:53 AM 38.7719 -110.5619 23° Northeast 520 598 35,000  Level Denver Center
Tue 11:17:55 AM 38.8983 -110.4733 29° Northeast 521 600 35,000  Level Denver Center
Tue 11:18:57 AM 38.9808 -110.3222 55° Northeast 517 595 35,000  Level Denver Center
Tue 11:19:59 AM 39.0542 -110.1631 59° Northeast 518 596 35,000 -48 Level Denver Center
Tue 11:21:01 AM 39.1281 -110.0053 59° Northeast 513 590 34,900  Descending Denver Center
Tue 11:22:03 AM 39.2167 -109.8342 56° Northeast 514 592 35,000 43 Climbing Denver Center
Tue 11:23:19 AM 39.3500 -109.6639 45° Northeast 519 597 35,000  Level Salt Lake Center
Tue 11:24:07 AM 39.4294 -109.5608 45° Northeast 520 598 35,000  Level Denver Center
Tue 11:25:09 AM 39.5272 -109.4353 45° Northeast 520 598 35,000  Level Denver Center
Tue 11:26:12 AM 39.6411 -109.2878 45° Northeast 520 598 35,000  Level Denver Center
Tue 11:27:14 AM 39.7433 -109.1519 46° Northeast 519 597 35,000 -48 Level Denver Center
Tue 11:28:16 AM 39.8458 -109.0183 45° Northeast 519 597 34,900  Descending Denver Center
Tue 11:29:18 AM 39.9472 -108.8858 45° Northeast 518 596 35,000 48 Climbing Denver Center
Tue 11:30:20 AM 40.0592 -108.7369 45° Northeast 518 596 35,000  Level Denver Center
Tue 11:31:22 AM 40.1550 -108.6092 46° Northeast 518 596 35,000  Level Denver Center
Tue 11:32:24 AM 40.2672 -108.4589 46° Northeast 518 596 35,000  Level Denver Center
Tue 11:33:26 AM 40.3633 -108.3308 45° Northeast 518 596 35,000  Level Denver Center
Tue 11:34:28 AM 40.4753 -108.1792 46° Northeast 518 596 35,000  Level Denver Center
Tue 11:35:30 AM 40.5722 -108.0483 46° Northeast 519 597 35,000  Level Denver Center
Tue 11:36:32 AM 40.6850 -107.8947 46° Northeast 520 598 35,000  Level Denver Center
Tue 11:37:34 AM 40.7806 -107.7644 46° Northeast 520 598 35,000  Level Denver Center
Tue 11:38:37 AM 40.8922 -107.6108 46° Northeast 520 598 35,000  Level Denver Center
Tue 11:39:39 AM 40.9856 -107.4811 46° Northeast 516 594 35,000  Level Denver Center
Tue 11:40:41 AM 41.0961 -107.3269 46° Northeast 516 594 35,000  Level Denver Center
Tue 11:41:43 AM 41.1892 -107.1958 47° Northeast 516 594 35,000  Level Denver Center
Tue 11:42:45 AM 41.2656 -107.0097 61° Northeast 524 603 35,000  Level Denver Center
Tue 11:43:47 AM 41.2961 -106.8356 77° East 512 589 35,000  Level Denver Center
Tue 11:44:49 AM 41.3297 -106.6300 78° East 511 588 35,000  Level Denver Center
Tue 11:45:51 AM 41.3578 -106.4528 78° East 509 586 35,000  Level Denver Center
Tue 11:46:53 AM 41.3858 -106.2769 78° East 510 587 35,000  Level Denver Center
Tue 11:47:56 AM 41.4169 -106.0717 79° East 509 586 35,000  Level Denver Center
Tue 11:48:58 AM 41.4458 -105.8950 78° East 510 587 35,000  Level Denver Center
Tue 11:50:00 AM 41.4753 -105.6878 79° East 510 587 35,000  Level Denver Center
Tue 11:51:02 AM 41.5022 -105.5103 78° East 510 587 35,000  Level Denver Center
Tue 11:52:04 AM 41.5336 -105.3058 78° East 507 583 35,000  Level Denver Center
Tue 11:53:06 AM 41.5600 -105.1275 79° East 508 585 35,000  Level Denver Center
Tue 11:54:08 AM 41.5892 -104.9169 79° East 515 593 35,000  Level Denver Center
Tue 11:55:10 AM 41.6150 -104.7372 79° East 515 593 35,000  Level Denver Center
Tue 11:56:12 AM 41.6453 -104.5311 79° East 511 588 35,000  Level Denver Center
Tue 11:57:14 AM 41.6697 -104.3531 80° East 512 589 35,000  Level Denver Center
Tue 11:58:17 AM 41.6983 -104.1472 79° East 511 588 35,000 -48 Level Denver Center
Tue 11:59:19 AM 41.7231 -103.9706 79° East 508 585 34,900 -48 Descending Denver Center
Tue 12:00:21 PM 41.7500 -103.7656 80° East 505 581 34,900  Level Denver Center
Tue 12:01:23 PM 41.7725 -103.5897 80° East 505 581 34,900  Level Denver Center
Tue 12:02:25 PM 41.8008 -103.3853 79° East 504 580 34,900 48 Level Denver Center
Tue 12:03:28 PM 41.8233 -103.2078 80° East 504 580 35,000 48 Climbing Denver Center
Tue 12:04:30 PM 41.8492 -103.0022 80° East 504 580 35,000  Level Denver Center
Tue 12:05:32 PM 41.8714 -102.8264 80° East 502 578 35,000 -48 Level Denver Center
Tue 12:06:34 PM 41.8972 -102.6211 80° East 502 578 34,900  Descending Denver Center
Tue 12:07:36 PM 41.9194 -102.4444 80° East 503 579 35,000 48 Climbing Denver Center
Tue 12:08:38 PM 41.9444 -102.2375 81° East 503 579 35,000  Level Denver Center
Tue 12:09:40 PM 41.9675 -102.0439 81° East 503 579 35,000  Level Denver Center
Tue 12:10:42 PM 41.9878 -101.8642 81° East 504 580 35,000  Level Denver Center
Tue 12:11:45 PM 42.0133 -101.6533 81° East 507 583 35,000  Level Denver Center
Tue 12:12:46 PM 42.0333 -101.4750 81° East 506 582 35,000  Level Denver Center
Tue 12:13:48 PM 42.0569 -101.2636 81° East 507 583 35,000  Level Denver Center
Tue 12:14:51 PM 42.0772 -101.0819 81° East 511 588 35,000  Level Denver Center
Tue 12:15:53 PM 42.0964 -100.9017 82° East 509 586 35,000  Level Denver Center
Tue 12:16:55 PM 42.1178 -100.6914 82° East 509 586 35,000  Level Denver Center
Tue 12:18:04 PM 42.1397 -100.4836 82° East 508 585 35,000  Level Minneapolis Center
Tue 12:18:59 PM 42.1589 -100.2983 82° East 510 587 35,000  Level Denver Center
Tue 12:20:08 PM 42.1778 -100.1069 82° East 508 585 35,000  Level Minneapolis Center
Tue 12:21:10 PM 42.1975 -99.9183 82° East 508 585 35,000  Level Minneapolis Center
Tue 12:22:11 PM 42.2200 -99.6903 82° East 508 585 35,000  Level Minneapolis Center
Tue 12:23:13 PM 42.2375 -99.5017 83° East 508 585 35,000  Level Minneapolis Center
Tue 12:24:15 PM 42.2553 -99.3119 83° East 508 585 35,000  Level Minneapolis Center
Tue 12:25:17 PM 42.2731 -99.1219 83° East 508 585 35,000  Level Minneapolis Center
Tue 12:26:19 PM 42.2911 -98.9308 83° East 508 585 35,000  Level Minneapolis Center
Tue 12:27:21 PM 42.3072 -98.7406 83° East 509 586 35,000  Level Minneapolis Center
Tue 12:28:23 PM 42.3244 -98.5497 83° East 509 586 35,000  Level Minneapolis Center
Tue 12:29:25 PM 42.3444 -98.3189 83° East 511 588 35,000  Level Minneapolis Center
Tue 12:30:27 PM 42.3608 -98.1264 83° East 512 589 35,000  Level Minneapolis Center
Tue 12:31:29 PM 42.3764 -97.9361 84° East 511 588 35,000 -48 Level Minneapolis Center
Tue 12:32:31 PM 42.3894 -97.7661 84° East 511 588 34,900  Descending Minneapolis Center
Tue 12:33:33 PM 42.4067 -97.5375 84° East 511 588 35,000 48 Climbing Minneapolis Center
Tue 12:34:35 PM 42.4222 -97.3467 84° East 511 588 35,000  Level Minneapolis Center
Tue 12:35:37 PM 42.4361 -97.1550 84° East 511 588 35,000  Level Minneapolis Center
Tue 12:36:40 PM 42.4506 -96.9639 84° East 511 588 35,000  Level Minneapolis Center
Tue 12:37:42 PM 42.4636 -96.7736 85° East 511 588 35,000  Level Minneapolis Center
Tue 12:38:44 PM 42.4769 -96.5825 85° East 511 588 35,000  Level Minneapolis Center
Tue 12:39:46 PM 42.4922 -96.3522 85° East 510 587 35,000  Level Minneapolis Center
Tue 12:40:48 PM 42.5056 -96.1600 85° East 511 588 35,000  Level Minneapolis Center
Tue 12:41:50 PM 42.5181 -95.9692 85° East 508 585 35,000 -48 Level Minneapolis Center
Tue 12:42:52 PM 42.5300 -95.7775 85° East 511 588 34,900  Descending Minneapolis Center
Tue 12:43:54 PM 42.5414 -95.5858 85° East 510 587 35,000 48 Climbing Minneapolis Center
Tue 12:44:57 PM 42.5528 -95.3931 85° East 510 587 35,000  Level Minneapolis Center
Tue 12:45:59 PM 42.5642 -95.2028 85° East 509 586 35,000 -48 Level Minneapolis Center
Tue 12:47:01 PM 42.5767 -94.9739 86° East 508 585 34,900  Descending Minneapolis Center
Tue 12:48:03 PM 42.5864 -94.7833 86° East 508 585 35,000 48 Climbing Minneapolis Center
Tue 12:49:05 PM 42.5964 -94.5931 86° East 507 583 35,000  Level Minneapolis Center
Tue 12:50:07 PM 42.6058 -94.4019 86° East 507 583 35,000  Level Minneapolis Center
Tue 12:51:09 PM 42.6106 -94.2139 88° East 504 580 35,000  Level Minneapolis Center
Tue 12:52:11 PM 42.6028 -94.0247 93° East 503 579 35,000 -48 Level Minneapolis Center
Tue 12:53:14 PM 42.5958 -93.7975 92° East 502 578 34,900 -48 Descending Minneapolis Center
Tue 12:54:16 PM 42.5892 -93.6067 93° East 502 578 34,900 48 Level Minneapolis Center
Tue 12:55:18 PM 42.5825 -93.4306 93° East 506 582 35,000 48 Climbing Minneapolis Center
Tue 12:56:20 PM 42.5756 -93.2422 93° East 506 582 35,000  Level Minneapolis Center
Tue 12:57:22 PM 42.5658 -93.0114 93° East 509 586 35,000  Level Minneapolis Center
Tue 12:58:56 PM 42.5531 -92.7133 93° East 504 580 35,000 -38 Level Chicago Center
Tue 12:59:58 PM 42.5444 -92.5250 93° East 504 580 34,900 -97 Descending Chicago Center
Tue 01:01:00 PM 42.5367 -92.3378 93° East 503 579 34,800 -532 Descending Chicago Center
Tue 01:02:02 PM 42.5283 -92.1517 93° East 501 577 33,800 -927 Descending Chicago Center
Tue 01:03:03 PM 42.5244 -91.9658 92° East 501 577 32,900 -927 Descending Chicago Center
Tue 01:04:05 PM 42.5261 -91.7781 89° East 501 577 31,900 -919 Descending Chicago Center
Tue 01:05:07 PM 42.5267 -91.5856 90° East 505 581 31,000 -435 Descending Chicago Center
Tue 01:06:09 PM 42.5278 -91.3600 90° East 502 578 31,000  Level Chicago Center
Tue 01:07:10 PM 42.5278 -91.1736 90° East 497 572 31,000  Level Chicago Center
Tue 01:08:12 PM 42.5264 -90.9800 90° East 495 570 31,000  Level Chicago Center
Tue 01:09:14 PM 42.5261 -90.7947 90° East 495 570 31,000  Level Chicago Center
Tue 01:10:16 PM 42.5256 -90.6092 90° East 494 568 31,000  Level Chicago Center
Tue 01:11:17 PM 42.5244 -90.4236 90° East 494 568 31,000 -244 Level Chicago Center
Tue 01:12:19 PM 42.5219 -90.2378 91° East 494 568 30,500 -1,452 Descending Chicago Center
Tue 01:13:21 PM 42.5158 -90.0533 93° East 496 571 28,000 -2,468 Descending Chicago Center
Tue 01:14:23 PM 42.4997 -89.8383 96° East 485 558 25,400 -2,371 Descending Chicago Center
Tue 01:15:25 PM 42.4906 -89.6686 94° East 464 534 23,100 -2,129 Descending Chicago Center
Tue 01:16:27 PM 42.4797 -89.5006 95° East 456 525 21,000 -2,129 Descending Chicago Center
Tue 01:17:29 PM 42.4683 -89.3358 95° East 447 514 18,700 -2,098 Descending Chicago Center
Tue 01:18:30 PM 42.4575 -89.1761 95° East 435 501 16,700 -2,244 Descending Chicago Center
Tue 01:19:32 PM 42.4450 -88.9903 95° East 420 483 14,100 -2,226 Descending Chicago Center
Tue 01:20:34 PM 42.4339 -88.8369 96° East 414 476 12,100 -1,500 Descending Chicago Center
Tue 01:21:36 PM 42.4236 -88.6914 95° East 398 458 11,000 -629 Descending Chicago Center
Tue 01:22:38 PM 42.3964 -88.5714 107° East 338 389 10,800 -871 Descending Chicago Center
Tue 01:23:40 PM 42.3631 -88.4586 112° Southeast 328 377 9,200 -1,355 Descending Chicago Center
Tue 01:24:42 PM 42.3111 -88.3425 121° Southeast 318 366 8,000 -878 Descending Chicago Center
Tue 01:25:43 PM 42.2653 -88.2617 127° Southeast 274 315 7,400 -829 Descending Chicago Center
Tue 01:26:45 PM 42.2000 -88.2431 168° South 243 280 6,300 -1,065 Descending Chicago Center
Tue 01:27:47 PM 42.1331 -88.2325 173° South 226 260 5,200 -1,016 Descending Chicago Center
Tue 01:28:49 PM 42.0747 -88.2233 173° South 211 243 4,200 -581 Descending Chicago Center
Tue 01:29:51 PM 42.0222 -88.1950 158° South 207 238 4,000 -242 Descending Chicago Center
Tue 01:30:53 PM 41.9975 -88.1244 115° Southeast 208 239 3,700 -726 Descending Chicago Center
Tue 01:31:55 PM 41.9836 -88.0517 104° East 205 236 2,500 -1,024 Descending Chicago Center
Tue 01:32:56 PM 41.9836 -87.9808 90° East 176 203 1,600 -780 Descending Chicago Center
Tue 01:33:58 PM 41.9842 -87.9292 89° East 146 168 900 -677 Descending Chicago Center

Login

Don't have an account? Register now (free) for customized features, flight alerts, and more!